This is the latest recevied weather packets stored in our database for station/object VK5GR-12. If no packets are shown the sender has not sent any weather packets the latest 10 day(s).
| Time | Temp. | Humidity | Pressure | Rain* | Wind** | Luminosity | Snow |
|---|---|---|---|---|---|---|---|
| 1777969163 | 14.44° C | 73% | 1023.4 hPa | 0 mm | - | 0 W/m² | - |
| 1777968259 | 15° C | 72% | 1023.6 hPa | 0 mm | - | 2 W/m² | - |
| 1777967355 | 15° C | 71% | 1023.4 hPa | 0 mm | - | 10 W/m² | - |
| 1777966453 | 15.56° C | 69% | 1023.3 hPa | 0 mm | - | 21 W/m² | - |
| 1777965548 | 17.22° C | 62% | 1023.2 hPa | 0 mm | - | 43 W/m² | - |
| 1777964644 | 17.78° C | 62% | 1023.3 hPa | 0 mm | - | 68 W/m² | - |
| 1777963739 | 18.33° C | 59% | 1023.3 hPa | 0 mm | - | 135 W/m² | - |
| 1777962835 | 16.67° C | 64% | 1023.3 hPa | 0 mm | - | 91 W/m² | - |
| 1777961932 | 16.67° C | 65% | 1023.1 hPa | 0 mm | - | 57 W/m² | - |
| 1777961030 | 16.67° C | 65% | 1023.1 hPa | 0 mm | - | 173 W/m² | - |
| 1777960125 | 17.22° C | 67% | 1023.2 hPa | 0 mm | - | 86 W/m² | - |
| 1777959223 | 17.78° C | 59% | 1022.7 hPa | 0 mm | - | 176 W/m² | - |
| 1777958320 | 16.67° C | 63% | 1022.8 hPa | 0 mm | - | 85 W/m² | - |
| 1777957419 | 16.11° C | 62% | 1022.6 hPa | 0 mm | - | 119 W/m² | - |
| 1777956515 | 17.22° C | 66% | 1022.8 hPa | 0 mm | - | 121 W/m² | - |
| 1777955611 | 17.22° C | 64% | 1022.7 hPa | 0 mm | - | 342 W/m² | - |
| 1777954706 | 17.22° C | 67% | 1022.7 hPa | 0 mm | - | 231 W/m² | - |
| 1777953805 | 16.67° C | 69% | 1022.8 hPa | 0 mm | - | 381 W/m² | - |
| 1777952900 | 16.11° C | 71% | 1023.2 hPa | 0 mm | - | 224 W/m² | - |
| 1777951996 | 16.67° C | 70% | 1023.2 hPa | 0 mm | - | 204 W/m² | - |
| 1777951093 | 16.11° C | 71% | 1023.3 hPa | 0 mm | - | 202 W/m² | - |
| 1777950189 | 15.56° C | 69% | 1023.3 hPa | 0 mm | - | 182 W/m² | - |
| 1777949286 | 16.11° C | 68% | 1023.5 hPa | 0 mm | - | 135 W/m² | - |
| 1777948383 | 16.11° C | 68% | 1023.7 hPa | 0 mm | - | 191 W/m² | - |
| 1777947480 | 16.11° C | 71% | 1023.7 hPa | 0 mm | - | 170 W/m² | - |
* Rain latest hour (hover to see other rain measurements)
** Current wind speed in m/s (hover to see current wind gust speed)